Darstellungsparameter: Aktuell verwendete Einstellungen:
Skalierung der Graphiken ... ?
xyx+y,   Skalierungsfaktor:      Skalierung: Modus: x, Faktor: 1
Darstellungszeitraum ... ?
Vom - - bis: - -   Zeitraum: 05.06.2009 - 06.06.2009
Min/Max/Avg-Anzeige ... ?
Zeige MMA aktuell
Zeige MMA Monat
Zeige MMA alles
Zeige --A aktuell
Zeige --A Monat
Zeige --A alles
Keine MMA-Anzeige
MMA:
Keine MMA-Graphiken
MMA-Basis: 05.06.2009 - 06.06.2009
Quicknavigation für Darstellung... ?
Tage:      1T, 2T, 3T, 5T -1T -2T -3T -5T +1T +2T +3T +5T
Wochen: 1W, 2W, 3W -1W -2W -3W +1W +2W +3W
Monate: 1M, 3M, 6M -1M -3M -6M +1M +3M +6M
Jahre:    1J, 3J, 5J, 10J -1J -3J -5J -10J +1J +3J +5J +10J
Nutze für die Darstellung ... ?
Originaldaten oder Mittelwerte auf ...
Stundenbasis Tagesbasis Wochenbasis
Monatsbasis Jahresbasis      Datenbasis: Original-Daten
Darstellen als:
Statistik (Auto) Statistik J:M      Darstellung:
Zur Graphik,    zurück zur Übersicht aller Sensoren.
 
Tabellarische Datenbersicht: ?
 
Sensor: Nr:Datum:Temp:Abs-Feuchte:Windchill:Wind:
Aussen-T/F 1 05-06-2009 00:06:22 11.7 C 5.12 g/m*3 11.7 C 0 km/h
2 05-06-2009 00:18:22 11.7 C 5.12 g/m*3 11.7 C 0 km/h
3 05-06-2009 00:30:22 11.6 C 5.09 g/m*3 11.6 C 0 km/h
4 05-06-2009 00:42:22 11.4 C 4.82 g/m*3 11.4 C 0 km/h
5 05-06-2009 00:54:22 11.2 C 4.76 g/m*3 11.2 C 0 km/h
6 05-06-2009 01:06:22 11.2 C 4.66 g/m*3 11.2 C 0 km/h
7 05-06-2009 01:18:22 11.1 C 4.63 g/m*3 11.1 C 0 km/h
8 05-06-2009 01:30:22 11 C 4.6 g/m*3 11 C 0 km/h
9 05-06-2009 01:42:22 10.9 C 4.67 g/m*3 10.9 C 0 km/h
10 05-06-2009 01:54:23 10.8 C 4.65 g/m*3 10.8 C 0 km/h
11 05-06-2009 02:06:23 10.7 C 4.71 g/m*3 10.7 C 0 km/h
12 05-06-2009 02:18:23 10.4 C 4.72 g/m*3 10.4 C 0 km/h
13 05-06-2009 02:30:23 10 C 4.7 g/m*3 10 C 0 km/h
14 05-06-2009 02:42:23 9.6 C 4.76 g/m*3 9.6 C 0 km/h
15 05-06-2009 02:54:23 9.2 C 4.91 g/m*3 9.2 C 0 km/h
16 05-06-2009 03:06:23 9.2 C 5 g/m*3 9.2 C 0 km/h
17 05-06-2009 03:18:23 9.3 C 5.03 g/m*3 9.3 C 0 km/h
18 05-06-2009 03:30:23 9.2 C 5 g/m*3 9.2 C 0 km/h
19 05-06-2009 03:42:23 9 C 5.11 g/m*3 9 C 0 km/h
20 05-06-2009 03:54:23 8.6 C 5.16 g/m*3 8.6 C 0 km/h
21 05-06-2009 04:06:23 8.6 C 5.16 g/m*3 8.6 C 0 km/h
22 05-06-2009 04:18:23 8.6 C 5.24 g/m*3 8.6 C 0 km/h
23 05-06-2009 04:30:23 8.5 C 5.21 g/m*3 8.5 C 0 km/h
24 05-06-2009 04:42:23 8.5 C 5.29 g/m*3 8.5 C 0 km/h
25 05-06-2009 04:54:23 8.5 C 5.38 g/m*3 8.5 C 0 km/h
Sensor: Nr:Datum:Temp:Abs-Feuchte:Windchill:Wind:
Aussen-T/F 26 05-06-2009 05:06:23 8.4 C 5.34 g/m*3 8.4 C 0 km/h
27 05-06-2009 05:18:23 8.1 C 5.33 g/m*3 8.1 C 0 km/h
28 05-06-2009 05:30:23 8.2 C 5.44 g/m*3 8.2 C 0 km/h
29 05-06-2009 05:42:23 8.4 C 5.6 g/m*3 8.4 C 0 km/h
30 05-06-2009 05:54:24 8.5 C 5.64 g/m*3 8.5 C 0 km/h
31 05-06-2009 06:06:24 8.5 C 5.72 g/m*3 8.5 C 0 km/h
32 05-06-2009 06:18:24 8.5 C 5.64 g/m*3 8.5 C 0 km/h
33 05-06-2009 06:30:24 8.5 C 5.72 g/m*3 8.5 C 0 km/h
34 05-06-2009 06:42:24 8.5 C 5.72 g/m*3 8.5 C 0 km/h
35 05-06-2009 06:54:24 8.7 C 5.79 g/m*3 8.7 C 0 km/h
36 05-06-2009 07:06:28 8.8 C 5.83 g/m*3 8.8 C 0 km/h
37 05-06-2009 07:18:27 8.9 C 5.78 g/m*3 8.9 C 0 km/h
38 05-06-2009 07:30:28 9.2 C 5.63 g/m*3 9.2 C 0 km/h
39 05-06-2009 07:42:28 10 C 5.64 g/m*3 10 C 0 km/h
40 05-06-2009 07:54:27 10.2 C 5.52 g/m*3 10.2 C 0 km/h
41 05-06-2009 08:06:27 10.5 C 5.63 g/m*3 10.5 C 0 km/h
42 05-06-2009 08:18:27 10.8 C 5.63 g/m*3 10.8 C 0 km/h
43 05-06-2009 08:30:27 10.6 C 5.56 g/m*3 10.6 C 0 km/h
44 05-06-2009 08:42:27 10.2 C 5.61 g/m*3 10.2 C 0 km/h
45 05-06-2009 08:54:26 10.4 C 5.78 g/m*3 10.4 C 0 km/h
46 05-06-2009 09:06:27 11.5 C 5.78 g/m*3 11.5 C 0 km/h
47 05-06-2009 09:18:26 12.3 C 5.43 g/m*3 12.3 C 0 km/h
48 05-06-2009 09:30:26 12.7 C 5.12 g/m*3 12.7 C 0 km/h
49 05-06-2009 09:42:26 11.8 C 4.95 g/m*3 11.8 C 0 km/h
50 05-06-2009 09:54:26 12.1 C 5.25 g/m*3 12.1 C 0 km/h
Sensor: Nr:Datum:Temp:Abs-Feuchte:Windchill:Wind:
Aussen-T/F 51 05-06-2009 10:06:26 12.7 C 5.12 g/m*3 12.7 C 0 km/h
52 05-06-2009 10:18:25 13.1 C 5.02 g/m*3 13.1 C 0 km/h
53 05-06-2009 10:30:26 12.3 C 4.67 g/m*3 12.3 C 0 km/h
54 05-06-2009 10:42:26 13.3 C 4.97 g/m*3 13.3 C 0 km/h
55 05-06-2009 10:54:26 12.6 C 4.54 g/m*3 12.6 C 0 km/h
56 05-06-2009 11:06:25 12.3 C 4.56 g/m*3 12.3 C 0 km/h
57 05-06-2009 11:18:26 13 C 4.76 g/m*3 13 C 0 km/h
58 05-06-2009 11:30:25 13.4 C 4.65 g/m*3 13.4 C 0 km/h
59 05-06-2009 11:42:25 14 C 4.34 g/m*3 14 C 0 km/h
60 05-06-2009 11:54:25 14.3 C 4.18 g/m*3 14.3 C 0 km/h
61 05-06-2009 12:06:24 14.6 C 4.38 g/m*3 14.6 C 0 km/h
62 05-06-2009 12:18:25 15.3 C 4.44 g/m*3 15.3 C 0 km/h
63 05-06-2009 12:30:25 15.6 C 4.26 g/m*3 15.6 C 0 km/h
64 05-06-2009 12:42:25 16.1 C 4.25 g/m*3 16.1 C 0 km/h
65 05-06-2009 12:54:24 16.6 C 4.38 g/m*3 16.6 C 0 km/h
66 05-06-2009 13:06:25 18.5 C 4.43 g/m*3 18.5 C 0 km/h
67 05-06-2009 13:18:24 17.7 C 4.22 g/m*3 17.7 C 0 km/h
68 05-06-2009 13:30:24 17.2 C 4.25 g/m*3 17.2 C 0 km/h
69 05-06-2009 13:42:25 16.6 C 4.1 g/m*3 16.6 C 0 km/h
70 05-06-2009 13:54:24 16.2 C 4 g/m*3 16.2 C 0 km/h
71 05-06-2009 14:06:24 16.5 C 4.07 g/m*3 16.5 C 0 km/h
72 05-06-2009 14:18:23 16.8 C 4.15 g/m*3 16.8 C 0 km/h
73 05-06-2009 14:30:23 16.6 C 3.96 g/m*3 16.6 C 0 km/h
74 05-06-2009 14:42:23 16.2 C 3.86 g/m*3 16.2 C 0 km/h
75 05-06-2009 14:54:23 16.4 C 4.19 g/m*3 16.4 C 0 km/h
Sensor: Nr:Datum:Temp:Abs-Feuchte:Windchill:Wind:
Aussen-T/F 76 05-06-2009 15:06:23 16.8 C 4.15 g/m*3 16.8 C 0 km/h
77 05-06-2009 15:18:23 16.4 C 3.77 g/m*3 16.4 C 0 km/h
78 05-06-2009 15:30:23 16 C 3.95 g/m*3 16 C 0 km/h
79 05-06-2009 15:42:23 15.9 C 3.93 g/m*3 15.9 C 0 km/h
80 05-06-2009 15:54:23 15.6 C 3.72 g/m*3 15.6 C 0 km/h
81 05-06-2009 16:06:22 16.8 C 3.86 g/m*3 16.8 C 0 km/h
82 05-06-2009 16:18:22 17.6 C 4.05 g/m*3 17.6 C 0 km/h
83 05-06-2009 16:30:23 18.4 C 4.09 g/m*3 18.4 C 0 km/h
84 05-06-2009 16:42:23 18.9 C 4.05 g/m*3 18.9 C 0 km/h
85 05-06-2009 16:54:22 20.1 C 4 g/m*3 20.1 C 0 km/h
86 05-06-2009 17:06:21 20 C 3.46 g/m*3 20 C 0 km/h
87 05-06-2009 17:18:22 18.4 C 3.3 g/m*3 18.4 C 0 km/h
88 05-06-2009 17:30:22 20.4 C 3.71 g/m*3 20.4 C 0 km/h
89 05-06-2009 17:42:22 20.7 C 3.6 g/m*3 20.7 C 0 km/h
90 05-06-2009 17:54:21 22 C 3.88 g/m*3 22 C 0 km/h
91 05-06-2009 18:06:22 22.9 C 4.09 g/m*3 22.9 C 0 km/h
92 05-06-2009 18:18:21 22.9 C 4.09 g/m*3 22.9 C 0 km/h
93 05-06-2009 18:30:21 22.1 C 3.9 g/m*3 22.1 C 0 km/h
94 05-06-2009 18:42:21 21 C 3.66 g/m*3 21 C 0 km/h
95 05-06-2009 18:54:21 20.7 C 3.6 g/m*3 20.7 C 0 km/h
96 05-06-2009 19:06:21 21 C 3.66 g/m*3 21 C 0 km/h
97 05-06-2009 19:18:20 20.2 C 3.5 g/m*3 20.2 C 0 km/h
98 05-06-2009 19:30:20 18.5 C 3.48 g/m*3 18.5 C 0 km/h
99 05-06-2009 19:42:20 17.7 C 3.92 g/m*3 17.7 C 0 km/h
100 05-06-2009 19:54:20 17.9 C 3.97 g/m*3 17.9 C 0 km/h
Sensor: Nr:Datum:Temp:Abs-Feuchte:Windchill:Wind:
Aussen-T/F 101 05-06-2009 20:06:20 17.7 C 4.07 g/m*3 17.7 C 0 km/h
102 05-06-2009 20:18:20 17.2 C 4.25 g/m*3 17.2 C 0 km/h
103 05-06-2009 20:30:20 16.9 C 4.6 g/m*3 16.9 C 0 km/h
104 05-06-2009 20:42:20 16 C 4.63 g/m*3 16 C 0 km/h
105 05-06-2009 20:54:20 15 C 4.62 g/m*3 15 C 0 km/h
106 05-06-2009 21:06:20 14.2 C 4.76 g/m*3 14.2 C 0 km/h
107 05-06-2009 21:18:20 13.4 C 4.77 g/m*3 13.4 C 0 km/h
108 05-06-2009 21:30:19 13 C 4.65 g/m*3 13 C 0 km/h
109 05-06-2009 21:42:19 12.7 C 4.9 g/m*3 12.7 C 0 km/h
110 05-06-2009 21:54:20 12.2 C 4.86 g/m*3 12.2 C 0 km/h
111 05-06-2009 22:06:19 11.9 C 4.87 g/m*3 11.9 C 0 km/h
112 05-06-2009 22:18:19 11.8 C 5.05 g/m*3 11.8 C 0 km/h
113 05-06-2009 22:31:19 11.4 C 5.03 g/m*3 11.4 C 0 km/h
114 05-06-2009 22:43:19 11.1 C 5.04 g/m*3 11.1 C 0 km/h
115 05-06-2009 22:55:19 11 C 5.1 g/m*3 11 C 0 km/h
116 05-06-2009 23:07:19 10.8 C 5.14 g/m*3 10.8 C 0 km/h
117 05-06-2009 23:19:19 10.5 C 5.14 g/m*3 10.5 C 0 km/h
118 05-06-2009 23:31:19 10.4 C 5.2 g/m*3 10.4 C 0 km/h
119 05-06-2009 23:43:19 10.1 C 5.2 g/m*3 10.1 C 0 km/h
120 05-06-2009 23:55:20 10 C 5.17 g/m*3 10 C 0 km/h
121 06-06-2009 00:07:20 9.8 C 5.29 g/m*3 9.8 C 0 km/h
122 06-06-2009 00:19:20 9.7 C 5.35 g/m*3 9.7 C 0 km/h
123 06-06-2009 00:31:20 9.5 C 5.37 g/m*3 9.5 C 0 km/h
124 06-06-2009 00:43:20 9.1 C 5.32 g/m*3 9.1 C 0 km/h
125 06-06-2009 00:55:20 8.9 C 5.43 g/m*3 8.9 C 0 km/h
Sensor: Nr:Datum:Temp:Abs-Feuchte:Windchill:Wind:
Aussen-T/F 126 06-06-2009 01:07:20 8.8 C 5.4 g/m*3 8.8 C 0 km/h
127 06-06-2009 01:19:20 8.6 C 5.33 g/m*3 8.6 C 0 km/h
128 06-06-2009 01:31:20 8.6 C 5.41 g/m*3 8.6 C 0 km/h
129 06-06-2009 01:43:20 8.5 C 5.55 g/m*3 8.5 C 0 km/h
130 06-06-2009 01:55:20 8.3 C 5.48 g/m*3 8.3 C 0 km/h
131 06-06-2009 02:07:20 8.2 C 5.53 g/m*3 8.2 C 0 km/h
132 06-06-2009 02:19:20 8.1 C 5.49 g/m*3 8.1 C 0 km/h
133 06-06-2009 02:31:20 8.1 C 5.57 g/m*3 8.1 C 0 km/h
134 06-06-2009 02:43:20 8.1 C 5.66 g/m*3 8.1 C 0 km/h
135 06-06-2009 02:55:20 8.1 C 5.66 g/m*3 8.1 C 0 km/h
136 06-06-2009 03:07:20 8 C 5.79 g/m*3 8 C 0 km/h
137 06-06-2009 03:19:20 7.8 C 5.79 g/m*3 7.8 C 0 km/h
138 06-06-2009 03:31:20 7.6 C 5.8 g/m*3 7.6 C 0 km/h
139 06-06-2009 03:43:20 7.5 C 5.84 g/m*3 7.5 C 0 km/h
140 06-06-2009 03:55:20 7.4 C 5.81 g/m*3 7.4 C 0 km/h
141 06-06-2009 04:07:21 7.4 C 5.81 g/m*3 7.4 C 0 km/h
142 06-06-2009 04:19:21 7.4 C 5.81 g/m*3 7.4 C 0 km/h
143 06-06-2009 04:31:21 7.3 C 5.85 g/m*3 7.3 C 0 km/h
144 06-06-2009 04:43:21 7.1 C 5.77 g/m*3 7.1 C 0 km/h
145 06-06-2009 04:55:21 7.2 C 5.89 g/m*3 7.2 C 0 km/h
146 06-06-2009 05:07:21 7.4 C 5.96 g/m*3 7.4 C 0 km/h
147 06-06-2009 05:19:21 7.6 C 6.04 g/m*3 7.6 C 0 km/h
148 06-06-2009 05:31:21 7.8 C 6.04 g/m*3 7.8 C 0 km/h
149 06-06-2009 05:43:21 8 C 6.04 g/m*3 8 C 0 km/h
150 06-06-2009 05:55:21 8.1 C 6.07 g/m*3 8.1 C 0 km/h
Sensor: Nr:Datum:Temp:Abs-Feuchte:Windchill:Wind:
Aussen-T/F 151 06-06-2009 06:07:21 8.2 C 6.11 g/m*3 8.2 C 0 km/h
152 06-06-2009 06:19:21 8.4 C 6.19 g/m*3 8.4 C 0 km/h
153 06-06-2009 06:31:21 8.7 C 6.23 g/m*3 8.7 C 0 km/h
154 06-06-2009 06:43:21 8.7 C 6.05 g/m*3 8.7 C 0 km/h
155 06-06-2009 06:55:21 8.9 C 6.13 g/m*3 8.9 C 0 km/h
156 06-06-2009 07:07:21 8.9 C 6.13 g/m*3 8.9 C 0 km/h
157 06-06-2009 07:19:21 8.9 C 6.13 g/m*3 8.9 C 0 km/h
158 06-06-2009 07:31:21 8.6 C 6.27 g/m*3 8.6 C 0 km/h
159 06-06-2009 07:43:21 8.6 C 6.44 g/m*3 8.6 C 0 km/h
160 06-06-2009 07:55:21 8.6 C 6.62 g/m*3 8.6 C 0 km/h
161 06-06-2009 08:07:22 8.6 C 6.79 g/m*3 8.6 C 0 km/h
162 06-06-2009 08:19:22 8.6 C 6.96 g/m*3 8.6 C 0 km/h
163 06-06-2009 08:31:22 8.3 C 7.08 g/m*3 8.3 C 0 km/h
164 06-06-2009 08:43:22 8.3 C 7.33 g/m*3 8.3 C 0 km/h
165 06-06-2009 08:55:22 8.2 C 7.37 g/m*3 8.2 C 0 km/h
166 06-06-2009 09:07:19 8.5 C 7.6 g/m*3 8.5 C 0 km/h
167 06-06-2009 09:19:19 8.4 C 7.63 g/m*3 8.4 C 0 km/h
168 06-06-2009 09:31:20 8.7 C 7.78 g/m*3 8.7 C 0 km/h
169 06-06-2009 09:43:20 8.7 C 7.87 g/m*3 8.7 C 0 km/h
170 06-06-2009 09:55:19 8.9 C 7.97 g/m*3 8.9 C 0 km/h
171 06-06-2009 10:07:19 9.1 C 7.99 g/m*3 9.1 C 0 km/h
172 06-06-2009 10:19:19 9.1 C 7.99 g/m*3 9.1 C 0 km/h
173 06-06-2009 10:31:19 8.9 C 7.97 g/m*3 8.9 C 0 km/h
174 06-06-2009 10:43:19 9 C 7.93 g/m*3 9 C 0 km/h
175 06-06-2009 10:55:18 9 C 7.93 g/m*3 9 C 0 km/h
Sensor: Nr:Datum:Temp:Abs-Feuchte:Windchill:Wind:
Aussen-T/F 176 06-06-2009 11:07:19 9 C 7.93 g/m*3 9 C 0 km/h
177 06-06-2009 11:19:18 9 C 7.93 g/m*3 9 C 0 km/h
178 06-06-2009 11:31:18 9.2 C 8.13 g/m*3 9.2 C 0 km/h
179 06-06-2009 11:43:18 9.2 C 8.13 g/m*3 9.2 C 0 km/h
180 06-06-2009 11:55:18 9 C 8.02 g/m*3 9 C 0 km/h
181 06-06-2009 12:07:17 9.2 C 8.13 g/m*3 9.2 C 0 km/h
182 06-06-2009 12:19:18 9.4 C 8.32 g/m*3 9.4 C 0 km/h
183 06-06-2009 12:31:18 9.3 C 8.27 g/m*3 9.3 C 0 km/h
184 06-06-2009 12:43:18 9.3 C 8.27 g/m*3 9.3 C 0 km/h
185 06-06-2009 12:55:17 9.5 C 8.37 g/m*3 9.5 C 0 km/h
186 06-06-2009 13:07:18 9.6 C 8.43 g/m*3 9.6 C 0 km/h
187 06-06-2009 13:19:17 9.7 C 8.48 g/m*3 9.7 C 0 km/h
188 06-06-2009 13:31:17 9.7 C 8.57 g/m*3 9.7 C 0 km/h
189 06-06-2009 13:43:17 9.7 C 8.57 g/m*3 9.7 C 0 km/h
190 06-06-2009 13:55:17 9.6 C 8.52 g/m*3 9.6 C 0 km/h
191 06-06-2009 14:07:17 9.8 C 8.63 g/m*3 9.8 C 0 km/h
192 06-06-2009 14:19:16 9.8 C 8.63 g/m*3 9.8 C 0 km/h
193 06-06-2009 14:31:16 9.8 C 8.63 g/m*3 9.8 C 0 km/h
194 06-06-2009 14:43:16 9.6 C 8.43 g/m*3 9.6 C 0 km/h
195 06-06-2009 14:55:16 9.5 C 8.37 g/m*3 9.5 C 0 km/h
196 06-06-2009 15:07:16 9.5 C 8.37 g/m*3 9.5 C 0 km/h
197 06-06-2009 15:19:15 9.4 C 8.32 g/m*3 9.4 C 0 km/h
198 06-06-2009 15:31:16 9.5 C 8.37 g/m*3 9.5 C 0 km/h
199 06-06-2009 15:43:16 9.7 C 8.57 g/m*3 9.7 C 0 km/h
200 06-06-2009 15:55:15 9.8 C 8.63 g/m*3 9.8 C 0 km/h
Sensor: Nr:Datum:Temp:Abs-Feuchte:Windchill:Wind:
Aussen-T/F 201 06-06-2009 16:07:15 10.1 C 8.7 g/m*3 10.1 C 0 km/h
202 06-06-2009 16:19:16 10.1 C 8.7 g/m*3 10.1 C 0 km/h
203 06-06-2009 16:31:15 9.9 C 8.68 g/m*3 9.9 C 0 km/h
204 06-06-2009 16:43:15 10 C 8.64 g/m*3 10 C 0 km/h
205 06-06-2009 16:55:15 9.9 C 8.68 g/m*3 9.9 C 0 km/h
206 06-06-2009 17:07:15 9.9 C 8.59 g/m*3 9.9 C 0 km/h
207 06-06-2009 17:19:15 9.9 C 8.59 g/m*3 9.9 C 0 km/h
208 06-06-2009 17:31:14 10.1 C 8.61 g/m*3 10.1 C 0 km/h
209 06-06-2009 17:43:14 10.3 C 8.71 g/m*3 10.3 C 0 km/h
210 06-06-2009 17:55:15 10.4 C 8.67 g/m*3 10.4 C 0 km/h
211 06-06-2009 18:07:14 10.5 C 8.73 g/m*3 10.5 C 0 km/h
212 06-06-2009 18:19:14 10.9 C 8.95 g/m*3 10.9 C 0 km/h
213 06-06-2009 18:31:02 10.7 C 8.64 g/m*3 10.7 C 0 km/h
214 06-06-2009 18:43:02 10.8 C 8.7 g/m*3 10.8 C 0 km/h
215 06-06-2009 18:55:01 10.7 C 8.45 g/m*3 10.7 C 0 km/h
216 06-06-2009 19:07:02 10.8 C 8.5 g/m*3 10.8 C 0 km/h
217 06-06-2009 19:19:01 10.9 C 8.45 g/m*3 10.9 C 0 km/h
218 06-06-2009 19:31:01 11.1 C 8.56 g/m*3 11.1 C 0 km/h
219 06-06-2009 19:43:01 11 C 8.51 g/m*3 11 C 0 km/h
220 06-06-2009 19:55:01 10.9 C 8.65 g/m*3 10.9 C 0 km/h
221 06-06-2009 20:07:01 10.5 C 8.34 g/m*3 10.5 C 0 km/h
222 06-06-2009 20:19:00 10.4 C 8.29 g/m*3 10.4 C 0 km/h
223 06-06-2009 20:31:00 10.4 C 8.38 g/m*3 10.4 C 0 km/h
224 06-06-2009 20:43:00 10.4 C 8.38 g/m*3 10.4 C 0 km/h
225 06-06-2009 20:55:00 10.3 C 8.33 g/m*3 10.3 C 0 km/h
Sensor: Nr:Datum:Temp:Abs-Feuchte:Windchill:Wind:
Aussen-T/F 226 06-06-2009 21:07:00 10.3 C 8.43 g/m*3 10.3 C 0 km/h
227 06-06-2009 21:18:59 10.2 C 8.37 g/m*3 10.2 C 0 km/h
228 06-06-2009 21:31:00 10.2 C 8.37 g/m*3 10.2 C 0 km/h
229 06-06-2009 21:43:00 10.1 C 8.32 g/m*3 10.1 C 0 km/h
230 06-06-2009 21:55:59 9.8 C 8.26 g/m*3 9.8 C 0 km/h
231 06-06-2009 22:07:59 9.5 C 8.1 g/m*3 9.5 C 0 km/h
232 06-06-2009 22:19:00 9.4 C 8.14 g/m*3 9.4 C 0 km/h
233 06-06-2009 22:31:59 9.4 C 8.23 g/m*3 9.4 C 0 km/h
234 06-06-2009 22:43:59 9.5 C 8.28 g/m*3 9.5 C 0 km/h
235 06-06-2009 22:55:59 9.6 C 8.43 g/m*3 9.6 C 0 km/h
236 06-06-2009 23:07:59 9.5 C 8.37 g/m*3 9.5 C 0 km/h
237 06-06-2009 23:19:59 9.5 C 8.37 g/m*3 9.5 C 0 km/h
238 06-06-2009 23:31:58 9.2 C 8.13 g/m*3 9.2 C 0 km/h
239 06-06-2009 23:43:58 8.8 C 8.01 g/m*3 8.8 C 0 km/h
240 06-06-2009 23:55:59 8.5 C 7.85 g/m*3 8.5 C 0 km/h

Legende:
   Min
   Max


Maximal/Minimal-Werte vom 05.06.2009 - 06.06.2009

Sensor Min Max Avg
Temp
(Aussen-T/F)
7.1 °C
06-06-2009  04:43:21
22.9 °C
05-06-2009  18:06:22
11.3 °C
Abs-Feuchte
(Aussen-T/F)
3.3 g/m*3
05-06-2009  17:18:22
8.95 g/m*3
06-06-2009  18:19:14
6.05 g/m*3
Windchill
(Aussen-T/F)
7.1 C
06-06-2009  04:43:21
22.9 C
05-06-2009  18:06:22
11.25 C

Die Daten stammen von einer Davis Vantage Pro 2 Wetter-Station und werden unter Linux mit der Software wview2wettercgi und aufbereitet. Alle Angaben erfolgen ohne Gewähr für ihre Vollständigkeit oder Richtigkeit.
Kontakt: Rainer Krienke krienke@uni-koblenz.de . Meine Webseiten an der Uni Koblenz oder privat.
Version: $Revision: 0.78 $